LGTS - Thessaloniki/Mik, Greece
Distance from station: 15km
: 22/09/2023 12:20
Few Clouds
Few Clouds

: 11 km/h
: 25°C
: 21°C
: 79%
: 1017 hPa
Clouds: Few Clouds
Visibility: 10 km
Cloud details: Few Clouds 610 m
2023/09/22 09:20 LGTS 220920Z 32006KT 9999 FEW020 25/21 Q1017 NOSIG
LGKZ - Kozani (civ/Army, Greece
Distance from station: 113km
: 22/09/2023 11:50
Clear
Clear
   calm
:
: 26°C
: 12°C
: 42%
: 1020 hPa
: Clear
Visibility: greater than 10 km
2023/09/22 08:50 LGKZ 220850Z 00000KT CAVOK 26/12 Q1020
 
LGKV - Kavala/Chrisoupo, Greece
Distance from station: 132km
: 22/09/2023 12:20
Clear
Clear

: 9 km/h
: 27°C
Heat Index: 27°C
: 13°C
: 42%
: 1017 hPa
: Clear
Visibility: greater than 10 km
2023/09/22 09:20 LGKV 220920Z 19005KT CAVOK 27/13 Q1017
LGBL - Nea Anchialos, Greece
Distance from station: 156km
: 22/09/2023 12:20
Clear
Clear

: 11 km/h
: 27°C
Heat Index: 29°C
: 20°C
: 66%
: 1017 hPa
: Clear
Visibility: greater than 10 km
2023/09/22 09:20 LGBL 220920Z 09006KT CAVOK 27/20 Q1017
 
LGSK - Skiathos Island, Greece
Distance from station: 161km
: 22/09/2023 11:50
Clear
Clear

: 7 km/h
: 26°C
: 21°C
: 74%
: 1016 hPa
: Clear
Visibility: greater than 10 km
2023/09/22 08:50 LGSK 220850Z 34004KT CAVOK 26/21 Q1016
LWSK - Skopje/Petrovac, Macedonia
Distance from station: 195km
: 22/09/2023 12:30
Clear
Clear

: 9 km/h
: 27°C
Heat Index: 28°C
: 17°C
: 54%
: 1016 hPa
: Clear
Visibility: greater than 10 km
2023/09/22 09:30 LWSK 220930Z 16005KT 080V230 CAVOK 27/17 Q1016 NOSIG
 
LGLM - Limnos Island Ar, Greece
Distance from station: 196km
: 22/09/2023 12:20
Clear
Clear

: 7 km/h
: 29°C
Heat Index: 29°C
: 15°C
: 43%
: 1017 hPa
: Clear
Visibility: greater than 10 km
2023/09/22 09:20 LGLM 220920Z 15004KT CAVOK 29/15 Q1017
LWOH - Ohrid, Macedonia
Distance from station: 202km
: 22/09/2023 12:30
Few Clouds
Few Clouds
   varies
: varies 6 km/h
: 24°C
: 14°C
: 54%
: 1019 hPa
Clouds: Few Clouds
Visibility: 10 km
Cloud details: Few Clouds 1219 m
2023/09/22 09:30 LWOH 220930Z VRB03KT 9999 FEW040 24/14 Q1019
 
LGSY - Skiros, Greece
Distance from station: 217km
: 22/09/2023 11:50
Clear
Clear

: 9 km/h
: 27°C
Heat Index: 28°C
: 16°C
: 51%
: 1017 hPa
: Clear
Visibility: greater than 10 km
2023/09/22 08:50 LGSY 220850Z 03005KT CAVOK 27/16 Q1017 BLU
LGIO - Ioannina, Greece
Distance from station: 218km
: 22/09/2023 12:20
Clear
Clear
   varies
: varies 7 km/h
: 27°C
Heat Index: 27°C
: 15°C
: 48%
: 1020 hPa
: Clear
Visibility: greater than 10 km
2023/09/22 09:20 LGIO 220920Z VRB04KT CAVOK 27/15 Q1020
 
LBPD - Plovdiv, Bulgaria
Distance from station: 222km
: 22/09/2023 12:30
Clear
Clear
   varies
: varies 6 km/h
: 27°C
Heat Index: 27°C
: 15°C
: 48%
: 1016 hPa
Clouds: Clear
Visibility: 10 km
2023/09/22 09:30 LBPD 220930Z AUTO VRB03KT 9999 NCD 27/15 Q1016 NOSIG
LBSF - Sofia (observato, Bulgaria
Distance from station: 229km
: 22/09/2023 12:30
Clear
Clear
   varies
: varies 6 km/h
: 25°C
: 15°C
: 54%
: 1017 hPa
: Clear
Visibility: greater than 10 km
2023/09/22 09:30 LBSF 220930Z VRB03KT CAVOK 25/15 Q1017 NOSIG
 
LGAL - Alexandroupolis, Greece
Distance from station: 242km
: 22/09/2023 12:20
Few Clouds
Few Clouds

: 9 km/h
: 26°C
: 18°C
: 61%
: 1016 hPa
Clouds: Few Clouds
Visibility: 10 km
Cloud details: Few Clouds 914 m
2023/09/22 09:20 LGAL 220920Z 23005KT 9999 FEW030 26/18 Q1016
LGPZ - Preveza/Aktion, Greece
Distance from station: 274km
: 22/09/2023 12:20
Clear
Clear

: 11 km/h
: 28°C
Heat Index: 30°C
: 21°C
: 66%
: 1017 hPa
: Clear
Visibility: greater than 10 km
2023/09/22 09:20 LGPZ 220920Z 04006KT CAVOK 28/21 Q1017
 
BKPR - Prishtina, Yugoslavia
Distance from station: 280km
: 22/09/2023 12:30
Clear
Clear

: 13 km/h
: 27°C
Heat Index: 27°C
: 14°C
: 45%
: 1016 hPa
: Clear
Visibility: greater than 10 km
2023/09/22 09:30 BKPR 220930Z 17007KT CAVOK 27/14 Q1016 NOSIG
LGEL - Elefsis (hel-Afb, Greece
Distance from station: 284km
: 22/09/2023 12:20
Clear
Clear
   calm
:
: 30°C
Heat Index: 30°C
: 16°C
: 43%
: 1017 hPa
: Clear
Visibility: greater than 10 km
2023/09/22 09:20 LGEL 220920Z 00000KT CAVOK 30/16 Q1017
 
LATI - Tirana, Albania
Distance from station: 291km
: 22/09/2023 12:20
Clear
Clear
   varies
: varies 4 km/h
: 32°C
: 15°C
: 36%
: 1015 hPa
: Clear
Visibility: greater than 10 km
2023/09/22 09:20 LATI 220920Z VRB02KT CAVOK 32/15 Q1015 NOSIG
LGKR - Ioannis Kapodist, Greece
Distance from station: 292km
: 22/09/2023 12:20
Few Clouds
Few Clouds

: 20 km/h
: 28°C
Heat Index: 30°C
: 21°C
: 66%
: 1016 hPa
Clouds: Few Clouds
Visibility: 10 km
Cloud details: Few Clouds 762 m
2023/09/22 09:20 LGKR 220920Z 14011KT 9999 FEW025 28/21 Q1016 NOSIG